sensor_id;sensor_type;location;lat;lon;timestamp;P1;durP1;ratioP1;P2;durP2;ratioP2
6033;SDS011;3045;43.226;27.858;2022-10-15T00:00:21;1.70;;;1.40;;
6033;SDS011;3045;43.226;27.858;2022-10-15T00:02:50;3.30;;;1.23;;
6033;SDS011;3045;43.226;27.858;2022-10-15T00:05:17;1.53;;;1.43;;
6033;SDS011;3045;43.226;27.858;2022-10-15T00:07:44;1.43;;;1.40;;
6033;SDS011;3045;43.226;27.858;2022-10-15T00:10:13;1.63;;;1.53;;
6033;SDS011;3045;43.226;27.858;2022-10-15T00:12:40;2.33;;;1.43;;
6033;SDS011;3045;43.226;27.858;2022-10-15T00:15:08;2.17;;;1.63;;
6033;SDS011;3045;43.226;27.858;2022-10-15T00:17:36;11.43;;;1.60;;
6033;SDS011;3045;43.226;27.858;2022-10-15T00:20:04;2.93;;;1.47;;
6033;SDS011;3045;43.226;27.858;2022-10-15T00:22:33;1.30;;;1.10;;
6033;SDS011;3045;43.226;27.858;2022-10-15T00:25:00;3.67;;;1.73;;
6033;SDS011;3045;43.226;27.858;2022-10-15T00:27:29;2.60;;;1.20;;
6033;SDS011;3045;43.226;27.858;2022-10-15T00:29:56;3.00;;;1.40;;
6033;SDS011;3045;43.226;27.858;2022-10-15T00:32:24;2.23;;;1.70;;
6033;SDS011;3045;43.226;27.858;2022-10-15T00:34:51;1.33;;;1.23;;
6033;SDS011;3045;43.226;27.858;2022-10-15T00:37:18;3.70;;;1.37;;
6033;SDS011;3045;43.226;27.858;2022-10-15T00:39:45;5.77;;;1.63;;
6033;SDS011;3045;43.226;27.858;2022-10-15T00:42:12;1.60;;;1.50;;
6033;SDS011;3045;43.226;27.858;2022-10-15T00:44:48;1.73;;;1.43;;
6033;SDS011;3045;43.226;27.858;2022-10-15T00:47:24;1.60;;;1.47;;
6033;SDS011;3045;43.226;27.858;2022-10-15T00:49:56;2.37;;;1.70;;
6033;SDS011;3045;43.226;27.858;2022-10-15T00:52:29;1.40;;;1.30;;
6033;SDS011;3045;43.226;27.858;2022-10-15T00:55:03;1.30;;;1.20;;
6033;SDS011;3045;43.226;27.858;2022-10-15T00:57:33;1.83;;;1.73;;
6033;SDS011;3045;43.226;27.858;2022-10-15T01:00:03;1.63;;;1.53;;
6033;SDS011;3045;43.226;27.858;2022-10-15T01:02:32;1.67;;;1.57;;
6033;SDS011;3045;43.226;27.858;2022-10-15T01:04:59;1.97;;;1.70;;
6033;SDS011;3045;43.226;27.858;2022-10-15T01:07:26;2.50;;;1.53;;
6033;SDS011;3045;43.226;27.858;2022-10-15T01:09:53;1.87;;;1.77;;
6033;SDS011;3045;43.226;27.858;2022-10-15T01:12:23;2.80;;;1.77;;
6033;SDS011;3045;43.226;27.858;2022-10-15T01:15:00;2.43;;;2.00;;
6033;SDS011;3045;43.226;27.858;2022-10-15T01:17:38;1.20;;;1.20;;
6033;SDS011;3045;43.226;27.858;2022-10-15T01:23:34;1.93;;;1.43;;
6033;SDS011;3045;43.226;27.858;2022-10-15T01:29:23;1.90;;;1.70;;
6033;SDS011;3045;43.226;27.858;2022-10-15T01:32:06;3.20;;;1.63;;
6033;SDS011;3045;43.226;27.858;2022-10-15T01:34:41;3.80;;;2.07;;
6033;SDS011;3045;43.226;27.858;2022-10-15T01:37:17;1.97;;;1.80;;
6033;SDS011;3045;43.226;27.858;2022-10-15T01:39:49;2.10;;;1.60;;
6033;SDS011;3045;43.226;27.858;2022-10-15T01:42:21;1.67;;;1.57;;
6033;SDS011;3045;43.226;27.858;2022-10-15T01:44:53;5.63;;;2.40;;
6033;SDS011;3045;43.226;27.858;2022-10-15T01:47:29;3.93;;;2.10;;
6033;SDS011;3045;43.226;27.858;2022-10-15T01:49:59;6.30;;;2.10;;
6033;SDS011;3045;43.226;27.858;2022-10-15T01:52:29;2.03;;;1.93;;
6033;SDS011;3045;43.226;27.858;2022-10-15T01:55:00;2.40;;;2.30;;
6033;SDS011;3045;43.226;27.858;2022-10-15T01:57:29;2.37;;;2.27;;
6033;SDS011;3045;43.226;27.858;2022-10-15T01:59:58;2.67;;;2.47;;
6033;SDS011;3045;43.226;27.858;2022-10-15T02:02:29;2.97;;;2.57;;
6033;SDS011;3045;43.226;27.858;2022-10-15T02:04:56;2.87;;;2.60;;
6033;SDS011;3045;43.226;27.858;2022-10-15T02:07:27;2.80;;;2.60;;
6033;SDS011;3045;43.226;27.858;2022-10-15T02:10:04;2.60;;;2.50;;
6033;SDS011;3045;43.226;27.858;2022-10-15T02:12:35;2.80;;;2.60;;
6033;SDS011;3045;43.226;27.858;2022-10-15T02:15:15;2.90;;;2.70;;
6033;SDS011;3045;43.226;27.858;2022-10-15T02:17:49;3.20;;;2.90;;
6033;SDS011;3045;43.226;27.858;2022-10-15T02:20:23;4.97;;;3.30;;
6033;SDS011;3045;43.226;27.858;2022-10-15T02:22:58;3.03;;;2.80;;
6033;SDS011;3045;43.226;27.858;2022-10-15T02:25:29;3.20;;;3.00;;
6033;SDS011;3045;43.226;27.858;2022-10-15T02:27:59;3.90;;;2.73;;
6033;SDS011;3045;43.226;27.858;2022-10-15T02:30:29;7.83;;;3.00;;
6033;SDS011;3045;43.226;27.858;2022-10-15T02:32:59;3.87;;;3.30;;
6033;SDS011;3045;43.226;27.858;2022-10-15T02:35:26;5.10;;;3.43;;
6033;SDS011;3045;43.226;27.858;2022-10-15T02:37:53;3.10;;;2.90;;
6033;SDS011;3045;43.226;27.858;2022-10-15T02:40:24;3.93;;;3.07;;
6033;SDS011;3045;43.226;27.858;2022-10-15T02:42:54;5.80;;;2.93;;
6033;SDS011;3045;43.226;27.858;2022-10-15T02:45:21;6.57;;;3.10;;
6033;SDS011;3045;43.226;27.858;2022-10-15T02:47:48;3.30;;;3.00;;
6033;SDS011;3045;43.226;27.858;2022-10-15T02:50:16;5.50;;;3.30;;
6033;SDS011;3045;43.226;27.858;2022-10-15T02:52:43;3.47;;;3.27;;
6033;SDS011;3045;43.226;27.858;2022-10-15T02:55:10;3.90;;;3.67;;
6033;SDS011;3045;43.226;27.858;2022-10-15T02:57:37;6.53;;;3.50;;
6033;SDS011;3045;43.226;27.858;2022-10-15T03:00:05;10.37;;;4.40;;
6033;SDS011;3045;43.226;27.858;2022-10-15T03:02:32;4.33;;;4.03;;
6033;SDS011;3045;43.226;27.858;2022-10-15T03:04:59;6.53;;;4.30;;
6033;SDS011;3045;43.226;27.858;2022-10-15T03:07:28;8.70;;;4.47;;
6033;SDS011;3045;43.226;27.858;2022-10-15T03:09:54;4.17;;;3.80;;
6033;SDS011;3045;43.226;27.858;2022-10-15T03:12:21;5.27;;;4.73;;
6033;SDS011;3045;43.226;27.858;2022-10-15T03:14:50;4.87;;;4.67;;
6033;SDS011;3045;43.226;27.858;2022-10-15T03:17:17;4.77;;;4.37;;
6033;SDS011;3045;43.226;27.858;2022-10-15T03:19:43;5.77;;;4.77;;
6033;SDS011;3045;43.226;27.858;2022-10-15T03:22:10;6.97;;;5.87;;
6033;SDS011;3045;43.226;27.858;2022-10-15T03:24:39;5.50;;;5.10;;
6033;SDS011;3045;43.226;27.858;2022-10-15T03:27:06;5.67;;;5.13;;
6033;SDS011;3045;43.226;27.858;2022-10-15T03:29:33;5.40;;;4.93;;
6033;SDS011;3045;43.226;27.858;2022-10-15T03:32:00;8.03;;;4.97;;
6033;SDS011;3045;43.226;27.858;2022-10-15T03:34:27;5.00;;;4.67;;
6033;SDS011;3045;43.226;27.858;2022-10-15T03:36:53;6.33;;;5.17;;
6033;SDS011;3045;43.226;27.858;2022-10-15T03:39:20;5.27;;;4.87;;
6033;SDS011;3045;43.226;27.858;2022-10-15T03:41:49;5.20;;;4.80;;
6033;SDS011;3045;43.226;27.858;2022-10-15T03:44:17;7.17;;;5.07;;
6033;SDS011;3045;43.226;27.858;2022-10-15T03:46:45;5.20;;;5.00;;
6033;SDS011;3045;43.226;27.858;2022-10-15T03:49:12;6.10;;;5.30;;
6033;SDS011;3045;43.226;27.858;2022-10-15T03:51:38;5.83;;;5.00;;
6033;SDS011;3045;43.226;27.858;2022-10-15T03:54:05;5.37;;;4.87;;
6033;SDS011;3045;43.226;27.858;2022-10-15T03:56:32;11.40;;;5.03;;
6033;SDS011;3045;43.226;27.858;2022-10-15T03:59:01;5.70;;;5.40;;
6033;SDS011;3045;43.226;27.858;2022-10-15T04:01:27;5.60;;;5.20;;
6033;SDS011;3045;43.226;27.858;2022-10-15T04:03:55;5.83;;;5.53;;
6033;SDS011;3045;43.226;27.858;2022-10-15T04:06:21;9.87;;;6.60;;
6033;SDS011;3045;43.226;27.858;2022-10-15T04:08:48;7.33;;;6.37;;
6033;SDS011;3045;43.226;27.858;2022-10-15T04:11:15;8.03;;;7.07;;
6033;SDS011;3045;43.226;27.858;2022-10-15T04:13:42;7.13;;;6.73;;
6033;SDS011;3045;43.226;27.858;2022-10-15T04:16:14;7.33;;;6.77;;
6033;SDS011;3045;43.226;27.858;2022-10-15T04:18:41;7.87;;;7.07;;
6033;SDS011;3045;43.226;27.858;2022-10-15T04:21:08;7.93;;;7.33;;
6033;SDS011;3045;43.226;27.858;2022-10-15T04:23:35;8.97;;;8.37;;
6033;SDS011;3045;43.226;27.858;2022-10-15T04:26:02;8.73;;;7.90;;
6033;SDS011;3045;43.226;27.858;2022-10-15T04:28:29;8.03;;;7.50;;
6033;SDS011;3045;43.226;27.858;2022-10-15T04:30:57;9.53;;;8.50;;
6033;SDS011;3045;43.226;27.858;2022-10-15T04:33:26;9.00;;;8.30;;
6033;SDS011;3045;43.226;27.858;2022-10-15T04:35:57;13.43;;;8.37;;
6033;SDS011;3045;43.226;27.858;2022-10-15T04:38:25;10.50;;;7.90;;
6033;SDS011;3045;43.226;27.858;2022-10-15T04:40:59;8.13;;;7.57;;
6033;SDS011;3045;43.226;27.858;2022-10-15T04:43:27;7.97;;;7.40;;
6033;SDS011;3045;43.226;27.858;2022-10-15T04:45:55;8.03;;;7.33;;
6033;SDS011;3045;43.226;27.858;2022-10-15T04:48:23;8.00;;;7.60;;
6033;SDS011;3045;43.226;27.858;2022-10-15T04:50:52;8.43;;;7.43;;
6033;SDS011;3045;43.226;27.858;2022-10-15T04:53:19;9.13;;;8.30;;
6033;SDS011;3045;43.226;27.858;2022-10-15T04:55:46;7.63;;;7.33;;
6033;SDS011;3045;43.226;27.858;2022-10-15T04:58:13;7.67;;;7.20;;
6033;SDS011;3045;43.226;27.858;2022-10-15T05:00:40;7.53;;;6.90;;
6033;SDS011;3045;43.226;27.858;2022-10-15T05:03:07;7.53;;;6.83;;
6033;SDS011;3045;43.226;27.858;2022-10-15T05:05:34;8.67;;;7.87;;
6033;SDS011;3045;43.226;27.858;2022-10-15T05:08:02;7.27;;;6.87;;
6033;SDS011;3045;43.226;27.858;2022-10-15T05:10:30;7.93;;;7.43;;
6033;SDS011;3045;43.226;27.858;2022-10-15T05:12:57;7.83;;;7.23;;
6033;SDS011;3045;43.226;27.858;2022-10-15T05:15:24;7.63;;;6.97;;
6033;SDS011;3045;43.226;27.858;2022-10-15T05:17:52;7.43;;;6.77;;
6033;SDS011;3045;43.226;27.858;2022-10-15T05:20:20;6.93;;;6.63;;
6033;SDS011;3045;43.226;27.858;2022-10-15T05:22:47;7.07;;;6.67;;
6033;SDS011;3045;43.226;27.858;2022-10-15T05:25:15;6.87;;;6.30;;
6033;SDS011;3045;43.226;27.858;2022-10-15T05:27:42;21.97;;;8.63;;
6033;SDS011;3045;43.226;27.858;2022-10-15T05:30:10;11.53;;;7.33;;
6033;SDS011;3045;43.226;27.858;2022-10-15T05:32:37;8.13;;;6.43;;
6033;SDS011;3045;43.226;27.858;2022-10-15T05:35:04;7.27;;;6.40;;
6033;SDS011;3045;43.226;27.858;2022-10-15T05:37:32;13.57;;;7.33;;
6033;SDS011;3045;43.226;27.858;2022-10-15T05:39:59;7.70;;;6.83;;
6033;SDS011;3045;43.226;27.858;2022-10-15T05:42:29;7.63;;;7.07;;
6033;SDS011;3045;43.226;27.858;2022-10-15T05:44:56;8.27;;;6.60;;
6033;SDS011;3045;43.226;27.858;2022-10-15T05:47:23;8.43;;;7.03;;
6033;SDS011;3045;43.226;27.858;2022-10-15T05:49:50;6.30;;;5.87;;
6033;SDS011;3045;43.226;27.858;2022-10-15T05:52:17;6.47;;;5.90;;
6033;SDS011;3045;43.226;27.858;2022-10-15T05:54:44;7.83;;;6.90;;
6033;SDS011;3045;43.226;27.858;2022-10-15T05:57:10;7.23;;;6.60;;
6033;SDS011;3045;43.226;27.858;2022-10-15T05:59:39;11.20;;;7.20;;
6033;SDS011;3045;43.226;27.858;2022-10-15T06:02:07;7.37;;;6.83;;
6033;SDS011;3045;43.226;27.858;2022-10-15T06:04:40;7.10;;;6.50;;
6033;SDS011;3045;43.226;27.858;2022-10-15T06:07:06;6.93;;;6.33;;
6033;SDS011;3045;43.226;27.858;2022-10-15T06:09:33;9.73;;;6.97;;
6033;SDS011;3045;43.226;27.858;2022-10-15T06:12:00;16.97;;;7.10;;
6033;SDS011;3045;43.226;27.858;2022-10-15T06:14:27;14.27;;;6.80;;
6033;SDS011;3045;43.226;27.858;2022-10-15T06:16:56;9.50;;;7.00;;
6033;SDS011;3045;43.226;27.858;2022-10-15T06:19:23;8.77;;;6.10;;
6033;SDS011;3045;43.226;27.858;2022-10-15T06:21:50;8.93;;;7.10;;
6033;SDS011;3045;43.226;27.858;2022-10-15T06:24:17;7.07;;;6.20;;
6033;SDS011;3045;43.226;27.858;2022-10-15T06:26:44;7.20;;;6.27;;
6033;SDS011;3045;43.226;27.858;2022-10-15T06:29:11;9.60;;;6.70;;
6033;SDS011;3045;43.226;27.858;2022-10-15T06:31:38;7.70;;;5.73;;
6033;SDS011;3045;43.226;27.858;2022-10-15T06:34:06;9.30;;;6.57;;
6033;SDS011;3045;43.226;27.858;2022-10-15T06:36:33;9.70;;;6.80;;
6033;SDS011;3045;43.226;27.858;2022-10-15T06:39:01;7.90;;;6.23;;
6033;SDS011;3045;43.226;27.858;2022-10-15T06:41:28;10.63;;;6.30;;
6033;SDS011;3045;43.226;27.858;2022-10-15T06:43:55;6.87;;;6.17;;
6033;SDS011;3045;43.226;27.858;2022-10-15T06:46:22;6.90;;;5.83;;
6033;SDS011;3045;43.226;27.858;2022-10-15T06:48:49;11.37;;;6.00;;
6033;SDS011;3045;43.226;27.858;2022-10-15T06:51:18;9.80;;;6.07;;
6033;SDS011;3045;43.226;27.858;2022-10-15T06:53:44;6.87;;;6.27;;
6033;SDS011;3045;43.226;27.858;2022-10-15T06:56:11;9.80;;;5.97;;
6033;SDS011;3045;43.226;27.858;2022-10-15T06:58:40;7.37;;;5.70;;
6033;SDS011;3045;43.226;27.858;2022-10-15T07:01:07;5.63;;;5.23;;
6033;SDS011;3045;43.226;27.858;2022-10-15T07:03:34;6.13;;;4.83;;
6033;SDS011;3045;43.226;27.858;2022-10-15T07:06:03;9.10;;;5.60;;
6033;SDS011;3045;43.226;27.858;2022-10-15T07:08:33;9.33;;;5.47;;
6033;SDS011;3045;43.226;27.858;2022-10-15T07:11:00;7.27;;;4.47;;
6033;SDS011;3045;43.226;27.858;2022-10-15T07:13:28;5.17;;;4.50;;
6033;SDS011;3045;43.226;27.858;2022-10-15T07:15:55;13.43;;;4.60;;
6033;SDS011;3045;43.226;27.858;2022-10-15T07:18:22;5.00;;;4.27;;
6033;SDS011;3045;43.226;27.858;2022-10-15T07:20:49;4.47;;;4.10;;
6033;SDS011;3045;43.226;27.858;2022-10-15T07:23:16;4.03;;;3.73;;
6033;SDS011;3045;43.226;27.858;2022-10-15T07:25:44;3.87;;;3.57;;
6033;SDS011;3045;43.226;27.858;2022-10-15T07:28:11;4.00;;;3.53;;
6033;SDS011;3045;43.226;27.858;2022-10-15T07:30:38;6.63;;;3.93;;
6033;SDS011;3045;43.226;27.858;2022-10-15T07:33:05;3.97;;;3.77;;
6033;SDS011;3045;43.226;27.858;2022-10-15T07:35:32;4.73;;;4.23;;
6033;SDS011;3045;43.226;27.858;2022-10-15T07:37:59;4.53;;;4.23;;
6033;SDS011;3045;43.226;27.858;2022-10-15T07:40:26;4.90;;;3.80;;
6033;SDS011;3045;43.226;27.858;2022-10-15T07:42:54;4.00;;;3.80;;
6033;SDS011;3045;43.226;27.858;2022-10-15T07:45:22;10.60;;;3.90;;
6033;SDS011;3045;43.226;27.858;2022-10-15T07:47:50;4.93;;;4.13;;
6033;SDS011;3045;43.226;27.858;2022-10-15T07:50:18;5.17;;;4.80;;
6033;SDS011;3045;43.226;27.858;2022-10-15T07:52:46;5.40;;;5.10;;
6033;SDS011;3045;43.226;27.858;2022-10-15T07:55:13;5.23;;;4.93;;
6033;SDS011;3045;43.226;27.858;2022-10-15T07:57:40;7.87;;;5.23;;
6033;SDS011;3045;43.226;27.858;2022-10-15T08:00:09;4.53;;;4.23;;
6033;SDS011;3045;43.226;27.858;2022-10-15T08:02:36;4.73;;;4.43;;
6033;SDS011;3045;43.226;27.858;2022-10-15T08:05:03;4.40;;;4.03;;
6033;SDS011;3045;43.226;27.858;2022-10-15T08:07:31;4.47;;;4.23;;
6033;SDS011;3045;43.226;27.858;2022-10-15T08:09:58;4.70;;;4.40;;
6033;SDS011;3045;43.226;27.858;2022-10-15T08:12:25;4.83;;;4.53;;
6033;SDS011;3045;43.226;27.858;2022-10-15T08:14:52;5.73;;;4.47;;
6033;SDS011;3045;43.226;27.858;2022-10-15T08:17:20;6.77;;;6.00;;
6033;SDS011;3045;43.226;27.858;2022-10-15T08:19:47;7.17;;;6.77;;
6033;SDS011;3045;43.226;27.858;2022-10-15T08:22:14;7.07;;;6.57;;
6033;SDS011;3045;43.226;27.858;2022-10-15T08:24:41;6.17;;;5.63;;
6033;SDS011;3045;43.226;27.858;2022-10-15T08:27:08;8.37;;;7.73;;
6033;SDS011;3045;43.226;27.858;2022-10-15T08:29:35;7.73;;;7.20;;
6033;SDS011;3045;43.226;27.858;2022-10-15T08:32:02;8.93;;;7.97;;
6033;SDS011;3045;43.226;27.858;2022-10-15T08:34:31;8.97;;;7.67;;
6033;SDS011;3045;43.226;27.858;2022-10-15T08:36:57;7.23;;;6.90;;
6033;SDS011;3045;43.226;27.858;2022-10-15T08:39:24;6.93;;;6.37;;
6033;SDS011;3045;43.226;27.858;2022-10-15T08:41:53;15.97;;;5.70;;
6033;SDS011;3045;43.226;27.858;2022-10-15T08:44:23;5.70;;;5.37;;
6033;SDS011;3045;43.226;27.858;2022-10-15T08:46:53;6.10;;;5.50;;
6033;SDS011;3045;43.226;27.858;2022-10-15T08:49:39;5.67;;;5.27;;
6033;SDS011;3045;43.226;27.858;2022-10-15T08:52:16;5.80;;;5.28;;
6033;SDS011;3045;43.226;27.858;2022-10-15T08:54:46;6.47;;;5.88;;
6033;SDS011;3045;43.226;27.858;2022-10-15T08:57:19;5.25;;;4.95;;
6033;SDS011;3045;43.226;27.858;2022-10-15T09:00:03;5.93;;;4.88;;
6033;SDS011;3045;43.226;27.858;2022-10-15T09:02:37;5.70;;;4.93;;
6033;SDS011;3045;43.226;27.858;2022-10-15T09:05:17;4.45;;;4.25;;
6033;SDS011;3045;43.226;27.858;2022-10-15T09:07:54;3.92;;;3.50;;
6033;SDS011;3045;43.226;27.858;2022-10-15T09:10:30;3.42;;;3.22;;
6033;SDS011;3045;43.226;27.858;2022-10-15T09:13:03;3.67;;;3.22;;
6033;SDS011;3045;43.226;27.858;2022-10-15T09:15:39;3.75;;;3.38;;
6033;SDS011;3045;43.226;27.858;2022-10-15T09:18:15;3.28;;;2.92;;
6033;SDS011;3045;43.226;27.858;2022-10-15T09:20:46;4.53;;;3.15;;
6033;SDS011;3045;43.226;27.858;2022-10-15T09:23:15;6.00;;;3.40;;
6033;SDS011;3045;43.226;27.858;2022-10-15T09:25:44;6.75;;;3.67;;
6033;SDS011;3045;43.226;27.858;2022-10-15T09:28:17;3.70;;;3.47;;
6033;SDS011;3045;43.226;27.858;2022-10-15T09:30:50;3.40;;;3.13;;
6033;SDS011;3045;43.226;27.858;2022-10-15T09:33:24;2.97;;;2.75;;
6033;SDS011;3045;43.226;27.858;2022-10-15T09:36:03;5.00;;;2.90;;
6033;SDS011;3045;43.226;27.858;2022-10-15T09:38:40;2.03;;;1.93;;
6033;SDS011;3045;43.226;27.858;2022-10-15T09:41:18;2.47;;;2.27;;
6033;SDS011;3045;43.226;27.858;2022-10-15T09:43:55;2.73;;;2.53;;
6033;SDS011;3045;43.226;27.858;2022-10-15T09:46:25;2.40;;;2.00;;
6033;SDS011;3045;43.226;27.858;2022-10-15T09:48:54;2.23;;;2.03;;
6033;SDS011;3045;43.226;27.858;2022-10-15T09:51:30;2.47;;;2.20;;
6033;SDS011;3045;43.226;27.858;2022-10-15T09:54:02;3.90;;;2.07;;
6033;SDS011;3045;43.226;27.858;2022-10-15T09:56:37;2.03;;;1.50;;
6033;SDS011;3045;43.226;27.858;2022-10-15T09:59:10;9.90;;;2.30;;
6033;SDS011;3045;43.226;27.858;2022-10-15T10:01:41;1.57;;;1.47;;
6033;SDS011;3045;43.226;27.858;2022-10-15T10:04:23;3.30;;;2.00;;
6033;SDS011;3045;43.226;27.858;2022-10-15T10:06:55;2.80;;;1.90;;
6033;SDS011;3045;43.226;27.858;2022-10-15T10:09:24;3.27;;;2.23;;
6033;SDS011;3045;43.226;27.858;2022-10-15T10:11:54;1.97;;;1.83;;
6033;SDS011;3045;43.226;27.858;2022-10-15T10:14:25;4.27;;;2.27;;
6033;SDS011;3045;43.226;27.858;2022-10-15T10:17:15;4.43;;;2.33;;
6033;SDS011;3045;43.226;27.858;2022-10-15T10:19:44;1.90;;;1.80;;
6033;SDS011;3045;43.226;27.858;2022-10-15T10:22:28;3.80;;;1.77;;
6033;SDS011;3045;43.226;27.858;2022-10-15T10:24:55;2.70;;;2.50;;
6033;SDS011;3045;43.226;27.858;2022-10-15T10:27:23;4.27;;;2.13;;
6033;SDS011;3045;43.226;27.858;2022-10-15T10:29:55;2.63;;;1.97;;
6033;SDS011;3045;43.226;27.858;2022-10-15T10:32:26;2.20;;;2.10;;
6033;SDS011;3045;43.226;27.858;2022-10-15T10:34:55;3.13;;;2.07;;
6033;SDS011;3045;43.226;27.858;2022-10-15T10:37:24;5.73;;;2.87;;
6033;SDS011;3045;43.226;27.858;2022-10-15T10:39:53;2.87;;;2.60;;
6033;SDS011;3045;43.226;27.858;2022-10-15T10:42:23;2.90;;;2.50;;
6033;SDS011;3045;43.226;27.858;2022-10-15T10:45:14;4.77;;;3.07;;
6033;SDS011;3045;43.226;27.858;2022-10-15T10:47:43;2.57;;;2.03;;
6033;SDS011;3045;43.226;27.858;2022-10-15T10:50:24;3.20;;;2.30;;
6033;SDS011;3045;43.226;27.858;2022-10-15T10:52:53;4.03;;;2.60;;
6033;SDS011;3045;43.226;27.858;2022-10-15T10:55:22;7.17;;;2.90;;
6033;SDS011;3045;43.226;27.858;2022-10-15T10:57:59;5.07;;;2.97;;
6033;SDS011;3045;43.226;27.858;2022-10-15T11:00:29;2.10;;;1.97;;
6033;SDS011;3045;43.226;27.858;2022-10-15T11:03:03;2.50;;;1.80;;
6033;SDS011;3045;43.226;27.858;2022-10-15T11:05:32;2.13;;;2.03;;
6033;SDS011;3045;43.226;27.858;2022-10-15T11:08:05;2.30;;;2.10;;
6033;SDS011;3045;43.226;27.858;2022-10-15T11:10:42;3.07;;;2.03;;
6033;SDS011;3045;43.226;27.858;2022-10-15T11:13:22;2.43;;;2.23;;
6033;SDS011;3045;43.226;27.858;2022-10-15T11:15:58;3.50;;;2.13;;
6033;SDS011;3045;43.226;27.858;2022-10-15T11:18:31;3.00;;;2.50;;
6033;SDS011;3045;43.226;27.858;2022-10-15T11:21:15;3.70;;;2.10;;
6033;SDS011;3045;43.226;27.858;2022-10-15T11:23:59;8.93;;;2.97;;
6033;SDS011;3045;43.226;27.858;2022-10-15T11:26:51;6.93;;;2.73;;
6033;SDS011;3045;43.226;27.858;2022-10-15T11:29:29;4.93;;;2.50;;
6033;SDS011;3045;43.226;27.858;2022-10-15T11:32:03;3.20;;;1.43;;
6033;SDS011;3045;43.226;27.858;2022-10-15T11:34:43;9.23;;;2.53;;
6033;SDS011;3045;43.226;27.858;2022-10-15T11:37:36;5.90;;;2.10;;
6033;SDS011;3045;43.226;27.858;2022-10-15T11:40:13;1.97;;;1.80;;
6033;SDS011;3045;43.226;27.858;2022-10-15T11:42:52;4.43;;;2.10;;
6033;SDS011;3045;43.226;27.858;2022-10-15T11:45:33;2.33;;;1.73;;
6033;SDS011;3045;43.226;27.858;2022-10-15T11:48:17;5.33;;;1.90;;
6033;SDS011;3045;43.226;27.858;2022-10-15T11:50:54;3.93;;;1.80;;
6033;SDS011;3045;43.226;27.858;2022-10-15T11:53:42;1.93;;;1.80;;
6033;SDS011;3045;43.226;27.858;2022-10-15T11:56:31;4.13;;;2.07;;
6033;SDS011;3045;43.226;27.858;2022-10-15T11:59:03;2.40;;;1.80;;
6033;SDS011;3045;43.226;27.858;2022-10-15T12:01:42;3.03;;;2.27;;
6033;SDS011;3045;43.226;27.858;2022-10-15T12:04:14;3.10;;;2.40;;
6033;SDS011;3045;43.226;27.858;2022-10-15T12:06:46;6.00;;;2.53;;
6033;SDS011;3045;43.226;27.858;2022-10-15T12:09:15;1.93;;;1.83;;
6033;SDS011;3045;43.226;27.858;2022-10-15T12:11:52;2.57;;;2.33;;
6033;SDS011;3045;43.226;27.858;2022-10-15T12:14:29;2.00;;;1.80;;
6033;SDS011;3045;43.226;27.858;2022-10-15T12:17:03;2.30;;;2.10;;
6033;SDS011;3045;43.226;27.858;2022-10-15T12:19:38;2.23;;;2.00;;
6033;SDS011;3045;43.226;27.858;2022-10-15T12:22:12;2.07;;;1.87;;
6033;SDS011;3045;43.226;27.858;2022-10-15T12:24:56;3.80;;;2.30;;
6033;SDS011;3045;43.226;27.858;2022-10-15T12:27:27;2.73;;;2.43;;
6033;SDS011;3045;43.226;27.858;2022-10-15T12:32:52;2.50;;;2.27;;
6033;SDS011;3045;43.226;27.858;2022-10-15T12:38:17;5.53;;;2.97;;
6033;SDS011;3045;43.226;27.858;2022-10-15T12:40:54;3.37;;;2.60;;
6033;SDS011;3045;43.226;27.858;2022-10-15T12:43:28;2.63;;;2.53;;
6033;SDS011;3045;43.226;27.858;2022-10-15T12:46:00;2.20;;;2.10;;
6033;SDS011;3045;43.226;27.858;2022-10-15T12:48:32;4.73;;;2.73;;
6033;SDS011;3045;43.226;27.858;2022-10-15T12:53:56;3.30;;;2.47;;
6033;SDS011;3045;43.226;27.858;2022-10-15T12:56:25;3.03;;;2.20;;
6033;SDS011;3045;43.226;27.858;2022-10-15T12:59:01;3.80;;;2.90;;
6033;SDS011;3045;43.226;27.858;2022-10-15T13:01:48;4.57;;;2.90;;
6033;SDS011;3045;43.226;27.858;2022-10-15T13:04:16;2.90;;;2.73;;
6033;SDS011;3045;43.226;27.858;2022-10-15T13:06:45;4.30;;;2.70;;
6033;SDS011;3045;43.226;27.858;2022-10-15T13:09:20;2.63;;;2.50;;
6033;SDS011;3045;43.226;27.858;2022-10-15T13:11:53;3.77;;;2.83;;
6033;SDS011;3045;43.226;27.858;2022-10-15T13:14:29;3.83;;;2.63;;
6033;SDS011;3045;43.226;27.858;2022-10-15T13:17:02;4.27;;;3.00;;
6033;SDS011;3045;43.226;27.858;2022-10-15T13:19:33;3.10;;;2.90;;
6033;SDS011;3045;43.226;27.858;2022-10-15T13:22:03;5.40;;;3.30;;
6033;SDS011;3045;43.226;27.858;2022-10-15T13:24:39;2.90;;;2.70;;
6033;SDS011;3045;43.226;27.858;2022-10-15T13:27:13;4.97;;;2.53;;
6033;SDS011;3045;43.226;27.858;2022-10-15T13:29:52;5.50;;;2.77;;
6033;SDS011;3045;43.226;27.858;2022-10-15T13:32:21;4.83;;;2.63;;
6033;SDS011;3045;43.226;27.858;2022-10-15T13:34:50;3.97;;;2.80;;
6033;SDS011;3045;43.226;27.858;2022-10-15T13:37:18;4.50;;;2.40;;
6033;SDS011;3045;43.226;27.858;2022-10-15T13:39:48;2.73;;;2.50;;
6033;SDS011;3045;43.226;27.858;2022-10-15T13:42:18;3.30;;;3.00;;
6033;SDS011;3045;43.226;27.858;2022-10-15T13:44:55;4.27;;;2.57;;
6033;SDS011;3045;43.226;27.858;2022-10-15T13:47:29;3.13;;;2.87;;
6033;SDS011;3045;43.226;27.858;2022-10-15T13:50:17;3.03;;;2.47;;
6033;SDS011;3045;43.226;27.858;2022-10-15T13:52:47;3.30;;;2.87;;
6033;SDS011;3045;43.226;27.858;2022-10-15T13:55:19;6.87;;;2.83;;
6033;SDS011;3045;43.226;27.858;2022-10-15T13:57:47;4.30;;;2.77;;
6033;SDS011;3045;43.226;27.858;2022-10-15T14:00:20;3.10;;;2.00;;
6033;SDS011;3045;43.226;27.858;2022-10-15T14:03:13;3.53;;;2.53;;
6033;SDS011;3045;43.226;27.858;2022-10-15T14:05:42;4.83;;;2.50;;
6033;SDS011;3045;43.226;27.858;2022-10-15T14:08:17;4.50;;;2.40;;
6033;SDS011;3045;43.226;27.858;2022-10-15T14:10:47;2.80;;;2.10;;
6033;SDS011;3045;43.226;27.858;2022-10-15T14:13:15;4.80;;;1.83;;
6033;SDS011;3045;43.226;27.858;2022-10-15T14:15:46;2.90;;;2.30;;
6033;SDS011;3045;43.226;27.858;2022-10-15T14:18:26;3.67;;;2.20;;
6033;SDS011;3045;43.226;27.858;2022-10-15T14:20:57;3.47;;;1.90;;
6033;SDS011;3045;43.226;27.858;2022-10-15T14:23:24;4.87;;;2.10;;
6033;SDS011;3045;43.226;27.858;2022-10-15T14:25:53;5.70;;;2.17;;
6033;SDS011;3045;43.226;27.858;2022-10-15T14:28:22;2.20;;;2.10;;
6033;SDS011;3045;43.226;27.858;2022-10-15T14:30:50;2.33;;;2.07;;
6033;SDS011;3045;43.226;27.858;2022-10-15T14:33:39;2.27;;;2.00;;
6033;SDS011;3045;43.226;27.858;2022-10-15T14:36:10;5.23;;;2.10;;
6033;SDS011;3045;43.226;27.858;2022-10-15T14:38:39;1.90;;;1.70;;
6033;SDS011;3045;43.226;27.858;2022-10-15T14:41:19;2.27;;;2.07;;
6033;SDS011;3045;43.226;27.858;2022-10-15T14:43:59;7.90;;;2.00;;
6033;SDS011;3045;43.226;27.858;2022-10-15T14:46:42;5.00;;;2.13;;
6033;SDS011;3045;43.226;27.858;2022-10-15T14:49:17;2.37;;;2.17;;
6033;SDS011;3045;43.226;27.858;2022-10-15T14:51:53;1.83;;;1.73;;
6033;SDS011;3045;43.226;27.858;2022-10-15T14:54:22;2.50;;;2.00;;
6033;SDS011;3045;43.226;27.858;2022-10-15T14:56:55;4.57;;;2.10;;
6033;SDS011;3045;43.226;27.858;2022-10-15T14:59:24;2.77;;;2.30;;
6033;SDS011;3045;43.226;27.858;2022-10-15T15:01:56;2.50;;;2.30;;
6033;SDS011;3045;43.226;27.858;2022-10-15T15:04:33;3.07;;;2.40;;
6033;SDS011;3045;43.226;27.858;2022-10-15T15:07:05;3.27;;;2.00;;
6033;SDS011;3045;43.226;27.858;2022-10-15T15:09:37;2.30;;;2.20;;
6033;SDS011;3045;43.226;27.858;2022-10-15T15:12:07;2.07;;;1.97;;
6033;SDS011;3045;43.226;27.858;2022-10-15T15:14:39;3.00;;;2.27;;
6033;SDS011;3045;43.226;27.858;2022-10-15T15:17:08;2.00;;;1.90;;
6033;SDS011;3045;43.226;27.858;2022-10-15T15:19:42;3.53;;;2.20;;
6033;SDS011;3045;43.226;27.858;2022-10-15T15:22:09;3.30;;;2.13;;
6033;SDS011;3045;43.226;27.858;2022-10-15T15:24:39;4.30;;;2.40;;
6033;SDS011;3045;43.226;27.858;2022-10-15T15:27:06;9.27;;;2.70;;
6033;SDS011;3045;43.226;27.858;2022-10-15T15:29:42;3.07;;;2.47;;
6033;SDS011;3045;43.226;27.858;2022-10-15T15:32:09;5.10;;;2.50;;
6033;SDS011;3045;43.226;27.858;2022-10-15T15:34:36;2.27;;;2.17;;
6033;SDS011;3045;43.226;27.858;2022-10-15T15:37:09;2.37;;;1.93;;